x

8454000 - Providence, Ri (foxr1) Weather Station

8:54 - Fri 18th Aug 2017 All times are EDT. -4 hours from GMT.

  • Wind
    11mph, 15mph gusts
  • Sea Temp 71°f
  • Air Temp 75°f
  • Sea Pressure 1009.1mb
  • 8454000 - Providence, Ri
  • 8454000 - Providence, Ri

More Historic Weather Station data

Upgrade to MSW Pro to gain access to the past 30 days of data for over 8000 Wavebouys and Weather Stations around the globe.

Join

Comparision Forecast

View Surf forecast
   
ven. 08/18 8:54 11 15 mph 1009.1mb 71f 75f
8:48 9 13 mph - - -
8:42 9 14 mph 1009.1mb 71f 75f
8:36 9 17 mph 1009.1mb 71f 75f
8:30 14 20 mph 1009.1mb 71f 75f
8:24 8 17 mph 1009.1mb 71f 75f
8:18 10 18 mph 1009.1mb 71f 75f
8:12 14 18 mph 1009.1mb 71f 75f
8:06 10 18 mph 1009mb 71f 75f
8:00 9 18 mph 1009mb 71f 75f
7:54 11 17 mph 1009.1mb 71f 75f
7:48 10 16 mph 1009mb - -
7:42 11 16 mph 1009.1mb 71f 75f
7:36 11 15 mph 1009.1mb 71f 75f
7:30 8 11 mph 1009.5mb 71f 75f
7:24 8 11 mph 1009.6mb 71f 75f
7:18 7 13 mph 1009.6mb 71f 75f
7:12 9 13 mph 1009.7mb 71f 75f
7:06 10 15 mph 1009.7mb 71f 74f
7:00 11 16 mph 1009.6mb 71f 74f
6:54 10 13 mph 1009.6mb 71f 74f
6:48 9 14 mph 1009.6mb - -
6:42 7 13 mph 1009.6mb 71f 74f
6:36 9 14 mph 1009.6mb 71f 74f
6:30 10 14 mph 1009.5mb 71f 74f
6:24 10 14 mph 1009.6mb 71f 74f
6:18 9 14 mph 1009.5mb 71f 74f
6:12 9 13 mph 1009.5mb 70f 73f
6:06 9 13 mph 1009.5mb 70f 73f
6:00 7 10 mph 1009.5mb 70f 73f
5:54 10 11 mph 1009.5mb 70f 73f
5:48 10 14 mph 1009.4mb 70f 73f
5:42 10 14 mph 1009.5mb 70f 73f
5:36 10 14 mph 1009.5mb 70f 73f
5:30 9 14 mph 1009.6mb 71f 73f
5:24 14 17 mph 1009.5mb 71f 73f
5:18 11 16 mph 1009.5mb 71f 73f
5:12 11 16 mph 1009.6mb 71f 73f
5:06 14 18 mph 1009.6mb 70f 74f
5:00 10 16 mph 1009.6mb 70f 74f
4:54 13 16 mph 1009.6mb 70f 74f
4:48 10 16 mph 1009.6mb 70f 74f
4:42 13 17 mph 1009.6mb 70f 74f
4:36 11 16 mph 1009.6mb 70f 74f
4:30 11 16 mph 1009.7mb 70f 74f
4:24 10 14 mph 1009.8mb 70f 73f
4:18 9 14 mph 1009.8mb 70f 73f
4:12 11 15 mph 1009.8mb 70f 72f
4:06 14 17 mph 1009.9mb 70f 73f
4:00 14 18 mph 1010.1mb 70f 73f
3:54 15 18 mph 1010.1mb 70f 73f
3:48 13 16 mph 1010mb 70f 73f
3:42 11 15 mph 1010mb 70f 74f
3:36 11 15 mph 1010mb 70f 74f
3:30 10 15 mph 1010mb 70f 74f
3:24 9 16 mph 1010.4mb 70f 74f
3:18 11 16 mph 1010.4mb 70f 74f
3:12 11 15 mph 1010.4mb 70f 74f
3:06 13 15 mph 1010.4mb 71f 75f
3:00 10 14 mph 1010.5mb 71f 75f
2:54 11 15 mph 1010.6mb 71f 75f
2:48 11 15 mph 1010.6mb 71f 76f
2:42 13 18 mph 1010.7mb 71f 76f
2:36 13 20 mph 1010.6mb 71f 76f
2:30 9 18 mph 1010.8mb 71f 77f
2:24 15 22 mph 1010.8mb 71f 77f
2:18 14 21 mph 1010.8mb 71f 77f
2:12 15 20 mph 1010.8mb 71f 77f
2:06 13 21 mph 1011.1mb 71f 78f
2:00 20 26 mph 1011.3mb 71f 78f
1:54 18 26 mph 1011.3mb 71f 78f
1:48 11 17 mph 1011.2mb 71f 79f
1:42 13 23 mph 1011.1mb 71f 78f
1:36 11 21 mph 1011.3mb 71f 79f
1:30 14 20 mph 1011.3mb 71f 78f
1:24 15 22 mph 1011.3mb 71f 78f
1:18 15 22 mph 1011.3mb 71f 78f
1:12 18 28 mph 1011.8mb 71f 78f
1:06 14 21 mph 1011.6mb 71f 78f
1:00 10 16 mph 1011.6mb 71f 78f
12:54 9 21 mph 1011.6mb 71f 78f
12:48 15 20 mph 1011.6mb 71f 76f
12:42 11 17 mph 1011.7mb 71f 77f
12:36 13 16 mph 1011.8mb 71f 77f
12:30 11 16 mph 1011.8mb 71f 77f
12:24 8 15 mph 1012mb 71f 76f
12:18 8 15 mph 1012mb 71f 76f
12:12 14 18 mph 1012.3mb 71f 76f
12:06 10 16 mph 1012.3mb 71f 76f
12:00 14 21 mph 1012.3mb 71f 76f
11:54 13 16 mph 1012.3mb 71f 76f
11:48 13 17 mph 1012.4mb 71f 76f
11:42 15 20 mph 1012.4mb 71f 76f
11:36 14 20 mph 1012.5mb 71f 76f
11:30 15 20 mph 1012.5mb 71f 77f
11:24 15 20 mph 1012.5mb 71f 77f
11:18 15 23 mph 1012.4mb 71f 76f
11:12 17 24 mph 1012.4mb 71f 76f
11:06 14 21 mph 1012.4mb 71f 76f
11:00 14 21 mph 1012.5mb 71f 76f
10:54 16 20 mph 1012.5mb 71f 75f
10:48 16 20 mph 1012.5mb 71f 75f
10:42 16 21 mph 1012.4mb 71f 75f
10:36 16 20 mph 1012.3mb 71f 75f
10:30 14 21 mph 1012.5mb 71f 75f
10:24 15 23 mph 1012.6mb 71f 75f
10:18 17 22 mph 1012.7mb 71f 75f
10:12 17 22 mph 1012.7mb 71f 75f
10:06 15 18 mph 1012.7mb 71f 75f
10:00 17 20 mph 1012.6mb 71f 74f
9:54 15 23 mph 1012.5mb 71f 74f
9:48 13 16 mph 1012.6mb 71f 74f
9:42 11 17 mph 1012.5mb 71f 74f
9:36 13 18 mph 1012.6mb 71f 74f
9:30 10 15 mph 1012.7mb 71f 73f
9:24 9 13 mph 1012.7mb 71f 73f
9:18 10 15 mph 1012.8mb 71f 73f
9:12 9 15 mph 1012.9mb 71f 73f
9:06 14 18 mph 1012.8mb 71f 73f
9:00 14 16 mph 1012.8mb 71f 72f
8:54 10 14 mph 1013mb 71f 73f
8:48 10 13 mph 1013.1mb 71f 73f
8:42 11 15 mph 1013.1mb 71f 72f
8:36 14 16 mph 1013.2mb 71f 72f
8:30 13 16 mph 1013.2mb 71f 72f
8:24 13 15 mph 1013.3mb 71f 72f
8:18 9 11 mph 1013.3mb 71f 72f
8:12 7 14 mph 1013.6mb 71f 72f
8:06 9 15 mph 1013.6mb 71f 72f
8:00 11 15 mph 1013.7mb 71f 72f
7:54 9 17 mph 1013.8mb 71f 72f
7:48 9 15 mph 1013.8mb 71f 72f
7:42 9 14 mph 1013.9mb 71f 72f
7:36 9 13 mph 1013.9mb 71f 71f
7:30 8 10 mph 1013.9mb 71f 71f
7:24 10 11 mph 1013.9mb 71f 71f
7:18 9 13 mph 1013.8mb 71f 71f
7:12 7 13 mph 1013.8mb 71f 71f
7:06 10 13 mph 1013.8mb 71f 71f
7:00 7 10 mph 1013.8mb 71f 71f
6:54 7 10 mph 1013.8mb 71f 71f
6:48 8 14 mph 1013.8mb 71f 71f
6:42 9 13 mph 1013.7mb 71f 71f
6:36 8 14 mph 1013.7mb 71f 70f
6:30 8 13 mph 1013.7mb 71f 70f
6:24 7 10 mph 1013.6mb 71f 70f
6:18 8 10 mph 1013.7mb 71f 70f
6:12 7 8 mph 1013.8mb 71f 69f
6:06 6 9 mph 1013.9mb 71f 69f
6:00 7 8 mph 1013.9mb 71f 69f
5:54 3 8 mph 1013.9mb 71f 69f
5:48 5 7 mph 1013.9mb 71f 69f
5:42 5 7 mph 1013.9mb 71f 69f
5:36 6 8 mph 1013.8mb 71f 69f
5:30 7 8 mph 1013.7mb 71f 69f
5:24 6 8 mph 1013.7mb 71f 69f
5:18 7 9 mph 1013.8mb 70f 69f
5:12 6 7 mph 1013.7mb 70f 69f
5:06 5 6 mph 1013.6mb 70f 69f
5:00 2 3 mph 1013.7mb 70f 68f
4:54 3 6 mph 1013.7mb 70f 68f
4:48 3 6 mph 1013.6mb 70f 68f
4:42 5 6 mph 1013.6mb 70f 68f
4:36 5 6 mph 1013.6mb 70f 68f
4:30 3 5 mph 1013.6mb 70f 68f
4:24 5 6 mph 1013.6mb 70f 68f
4:18 5 6 mph 1013.7mb 70f 68f
4:12 3 7 mph 1013.7mb 70f 68f
4:06 6 7 mph 1013.7mb 70f 68f
4:00 5 6 mph 1013.7mb 70f 68f
3:54 5 6 mph 1013.8mb 70f 68f
3:48 5 6 mph 1013.9mb 70f 68f
3:42 3 7 mph 1014.1mb 70f 68f
3:36 3 6 mph 1014.1mb 70f 68f
3:30 5 7 mph 1014.1mb 70f 68f
3:24 3 6 mph 1014.1mb 70f 68f
3:18 5 7 mph 1014.1mb 70f 68f
3:12 5 6 mph 1014.2mb 70f 67f
3:06 3 5 mph 1014.2mb 70f 67f
3:00 5 6 mph 1014.3mb 70f 67f
2:42 3 3 mph 1014.4mb - -
2:36 3 5 mph 1014.5mb - -
2:30 3 3 mph 1014.6mb 71f 67f
2:24 2 2 mph 1014.7mb 71f 67f
2:18 1 3 mph 1014.7mb 71f 67f
2:12 2 3 mph 1014.7mb 71f 67f
2:06 2 2 mph 1014.7mb 71f 67f
2:00 1 2 mph 1014.8mb 71f 67f
1:54 2 3 mph 1014.9mb 71f 67f
1:48 2 3 mph 1014.9mb 71f -
1:42 2 5 mph 1014.8mb 72f -
1:36 3 3 mph 1014.8mb 72f -
1:30 2 5 mph 1014.8mb 72f 67f
1:24 3 6 mph 1015mb 72f 67f
1:18 5 6 mph 1015.1mb 72f 67f
1:12 2 5 mph 1015.1mb 72f 67f
1:06 2 5 mph 1015.1mb 72f 67f
1:00 3 5 mph 1015.2mb 72f 67f
12:54 2 5 mph 1015.3mb 72f 67f
12:48 2 6 mph 1015.2mb 72f 67f
12:42 3 7 mph 1015.3mb 72f 67f
12:36 5 6 mph 1015.3mb 72f 67f
12:30 5 5 mph 1015.3mb 72f 67f
12:24 2 5 mph 1015.4mb 72f 67f
12:18 2 3 mph 1015.6mb 72f 67f
12:12 3 5 mph 1015.6mb 72f 67f
12:06 3 5 mph 1015.5mb 72f 67f
12:00 3 6 mph 1015.5mb 72f 67f
jeu. 08/17 11:48 3 5 mph 1015.5mb 72f 68f
11:42 2 3 mph 1015.5mb 72f 68f
11:36 1 3 mph 1015.4mb 72f 68f
11:30 3 5 mph 1015.5mb 72f 69f
11:24 3 6 mph 1015.5mb 72f 68f
11:18 3 5 mph 1015.5mb 72f 68f
11:12 3 5 mph 1015.5mb 72f 68f
11:06 3 5 mph 1015.5mb 72f 68f
11:00 3 5 mph 1015.5mb 72f 68f
10:54 5 5 mph 1015.5mb 72f 68f
10:48 3 5 mph 1015.5mb 72f 68f
10:42 3 6 mph 1015.6mb 72f 69f
10:36 5 7 mph 1015.5mb 72f 69f
10:30 3 7 mph 1015.6mb 72f 69f
10:24 6 7 mph 1015.5mb 72f 69f
10:18 6 8 mph 1015.5mb - -
10:12 3 5 mph 1015.5mb 72f 69f
10:06 5 7 mph 1015.4mb 72f 69f
10:00 6 7 mph 1015.4mb 72f 69f
9:30 6 6 mph 1015.5mb 72f 69f
9:24 6 8 mph 1015.5mb 72f 70f
9:18 6 7 mph - - -
9:12 3 6 mph 1015.3mb 72f 70f
9:06 5 7 mph 1015.3mb 72f 70f
9:00 7 9 mph 1015.3mb 72f 70f
8:54 7 8 mph 1015.3mb 72f 71f
8:48 5 6 mph 1015.2mb 72f 71f
8:42 5 7 mph 1015.2mb 72f 71f
8:36 6 8 mph 1015.1mb 72f 71f
8:30 6 8 mph 1015.1mb 72f 71f
8:24 6 8 mph 1015mb 72f 71f
8:18 6 9 mph 1015mb 72f 72f
8:12 5 7 mph 1015mb 72f 72f
8:06 6 10 mph 1015mb 72f 72f
8:00 7 10 mph 1014.9mb 72f 72f
7:54 9 10 mph 1014.9mb 72f 72f
7:48 7 10 mph 1014.9mb 72f 72f
7:42 7 8 mph 1014.9mb 72f 72f
7:36 7 9 mph 1014.8mb 71f 72f
7:30 8 9 mph 1014.8mb 71f 72f
7:24 6 7 mph 1014.7mb 71f 73f
7:18 8 9 mph 1014.6mb 71f 73f
7:12 8 10 mph 1014.5mb 71f 73f
7:06 8 13 mph 1014.5mb 71f 73f
7:00 7 11 mph 1014.6mb 71f 73f
6:54 8 14 mph 1014.5mb 71f 73f
6:48 10 14 mph 1014.6mb 71f 73f
6:42 9 14 mph 1014.6mb 71f 73f
6:36 10 14 mph 1014.6mb 71f 73f
6:30 10 15 mph 1014.6mb 71f 74f
6:24 10 13 mph 1014.7mb 71f 74f
6:18 11 14 mph 1014.7mb 71f 74f
6:12 9 14 mph 1014.6mb 70f 74f
6:06 9 13 mph 1014.6mb 70f 75f
6:00 11 16 mph 1014.6mb 70f 74f
5:54 14 17 mph 1014.6mb 70f 74f
5:48 13 15 mph 1014.6mb 70f 75f
5:42 13 16 mph 1014.6mb 70f 75f
5:36 10 15 mph 1014.6mb 70f 76f
5:30 10 18 mph 1014.6mb 70f 76f
5:24 15 18 mph 1014.6mb 70f 76f
5:18 13 16 mph 1014.5mb 70f 76f
5:12 13 18 mph 1014.5mb 70f 77f
5:06 14 17 mph 1014.5mb 70f 77f
5:00 13 17 mph 1014.5mb 70f 78f
4:54 11 15 mph 1014.4mb 70f 77f
4:48 15 18 mph 1014.4mb 70f 77f
4:42 13 16 mph 1014.4mb 70f 77f
4:36 10 14 mph 1014.5mb 70f 78f
4:30 15 18 mph 1014.6mb 70f 77f
4:24 16 20 mph 1014.6mb 70f 76f
4:18 16 20 mph 1014.5mb 70f 76f
4:12 15 17 mph 1014.5mb 70f 76f
4:06 15 18 mph 1014.6mb 70f 77f
4:00 14 20 mph 1014.5mb 70f 77f
3:54 15 18 mph 1014.6mb 70f 77f
3:48 14 17 mph 1014.6mb 70f 78f
3:42 16 21 mph 1014.7mb 70f 78f
3:36 15 18 mph 1014.7mb 70f 78f
3:30 6 8 mph 1014.7mb 70f 79f
3:24 6 9 mph 1014.8mb 70f 77f
3:18 6 10 mph 1014.8mb 70f 78f
3:12 6 9 mph 1014.8mb 70f 78f
3:06 6 10 mph 1014.9mb 70f 79f
3:00 8 14 mph 1015mb 70f 78f
2:54 11 14 mph 1015mb 70f 77f
2:48 8 13 mph 1015.1mb 70f 77f
2:42 11 13 mph 1015.3mb 70f 77f
2:36 10 13 mph 1015.3mb 70f 79f
2:30 11 15 mph 1015.3mb 70f 78f
2:24 5 11 mph 1015.3mb 70f 79f
2:18 13 15 mph 1015.4mb 70f 78f
2:12 8 11 mph 1015.5mb 70f 76f
2:06 7 13 mph 1015.6mb 70f 77f
2:00 10 13 mph 1015.8mb 70f 76f
1:54 10 14 mph 1015.9mb 70f 76f
1:48 11 14 mph 1016mb 70f 76f
1:42 10 13 mph 1016mb 70f 76f
1:36 6 9 mph 1016.1mb 70f 78f
1:30 8 10 mph 1016.1mb 70f 76f
1:24 6 8 mph 1016mb 70f 76f
1:18 6 9 mph 1016.2mb 70f 79f
1:12 6 8 mph 1016.2mb 70f 78f
1:06 5 7 mph 1016.3mb 70f 77f
1:00 5 7 mph 1016.3mb 70f 76f
12:54 5 6 mph 1016.4mb 70f 75f
12:48 3 5 mph 1016.4mb 70f 75f
12:42 2 5 mph 1016.5mb 70f 75f
12:36 3 6 mph 1016.4mb 70f 75f
12:30 5 6 mph 1016.5mb 70f 74f
12:24 2 6 mph 1016.5mb 70f 74f
12:18 3 5 mph 1016.6mb 70f 74f
12:12 3 5 mph 1016.7mb 71f 73f
12:06 3 6 mph 1016.8mb 71f 73f
12:00 5 6 mph 1016.9mb 71f 73f
11:54 3 5 mph 1017.1mb 71f 73f
11:48 2 5 mph 1017.1mb 71f 73f
11:42 3 5 mph 1017.1mb 71f 73f
11:36 3 3 mph 1017.1mb 71f 73f
11:30  -  3 mph 1017.2mb 71f 73f
11:24 3 7 mph 1017.2mb 71f 73f
11:18 3 6 mph 1017.2mb 71f 73f
11:12 3 3 mph 1017.3mb 71f 73f
11:06 3 5 mph 1017.5mb 71f 74f
11:00 2 7 mph 1017.4mb 71f 74f
10:54 5 8 mph 1017.5mb 71f 72f
10:48 7 10 mph 1017.5mb 71f 72f
10:42 6 8 mph 1017.5mb 71f 72f
10:36 5 8 mph 1017.5mb 71f 72f
10:30 5 8 mph 1017.5mb 71f 71f
10:24 3 9 mph 1017.5mb 71f 71f
10:18 6 9 mph 1017.6mb 71f 71f
10:12 7 9 mph 1017.6mb 71f 71f
10:06 5 7 mph 1017.7mb 71f 71f
10:00 5 8 mph 1017.7mb 71f 71f
9:54 6 8 mph 1017.8mb 71f 71f
9:48 5 8 mph 1017.9mb 71f 71f
9:42 6 7 mph 1017.8mb 71f 71f
9:36 5 6 mph 1017.8mb 71f 70f
9:30 5 6 mph 1017.7mb 71f 71f
9:24 3 6 mph 1017.6mb 71f 71f
9:18 3 5 mph 1017.6mb 71f 70f
9:12 2 5 mph 1017.6mb 71f 70f
9:06 5 6 mph 1017.5mb 71f 71f
9:00 3 5 mph 1017.6mb 71f 71f
8:54 5 7 mph 1017.6mb 71f 70f
8:48 6 7 mph 1017.5mb 71f 71f
8:42 5 6 mph 1017.6mb 71f 71f
8:36 3 6 mph 1017.6mb 71f 70f
8:30 5 6 mph 1017.4mb 71f 71f
8:24 3 6 mph 1017.5mb 71f 71f
8:18 2 6 mph 1017.5mb 71f 70f
8:12 5 7 mph 1017.5mb 71f 70f
8:06 5 8 mph 1017.6mb 71f 69f
8:00 7 9 mph 1017.7mb 71f 68f
7:54 3 6 mph 1017.7mb 71f 67f
7:48 5 5 mph 1017.6mb 71f 66f
7:42 5 6 mph 1017.6mb 71f 66f
7:36 5 5 mph 1017.6mb 71f 65f
7:30 5 6 mph 1017.5mb 71f 65f
7:24 1 3 mph 1017.5mb 71f 65f
7:18 2 3 mph 1017.5mb 71f 64f
7:12 2 3 mph 1017.5mb 71f 64f
7:06 2 6 mph 1017.5mb 71f 64f
7:00 2 5 mph 1017.4mb 71f 64f
6:54 5 6 mph 1017.3mb 71f 63f
6:48 5 6 mph 1017.3mb 71f 63f
6:42 3 5 mph 1017.2mb 71f 63f
6:36 2 3 mph 1017.2mb 71f 64f
6:30 2 3 mph 1017.2mb 71f 64f
6:24 2 3 mph 1017.1mb 71f 64f
6:18 3 6 mph 1016.8mb 71f 65f
6:12 3 7 mph 1016.8mb 70f 65f
6:06 5 6 mph 1016.7mb 70f 64f
6:00 5 7 mph 1016.7mb 70f 64f
5:54 6 7 mph 1016.7mb 70f 64f
5:48 6 7 mph 1016.7mb 70f 64f
5:42 5 6 mph 1016.6mb 70f 64f
5:36 6 7 mph 1016.6mb 70f 64f
5:30 5 8 mph 1016.5mb 70f 64f
5:24 6 7 mph 1016.6mb 70f 64f
5:18 5 7 mph 1016.5mb 70f 64f
5:12 6 8 mph 1016.5mb 70f 64f
5:06 5 7 mph 1016.4mb 70f 64f
5:00 5 7 mph 1016.4mb 70f 64f
4:54 6 8 mph 1016.3mb 70f 65f
4:48 6 9 mph 1016.2mb 70f 65f
4:42 7 10 mph 1016.3mb 70f 65f
4:36 8 10 mph 1016.3mb 70f 65f
4:30 7 10 mph 1016.4mb 70f 65f
4:24 7 9 mph 1016.4mb 70f 65f
4:18 7 9 mph 1016.3mb 70f 66f
4:12 5 7 mph 1016.3mb 70f 66f
4:06 6 8 mph 1016.2mb 70f 66f
4:00 7 8 mph 1016.2mb 70f 66f
3:54 6 10 mph 1016.2mb 70f 66f
3:48 8 11 mph 1016.1mb 70f 66f
3:42 8 11 mph 1016.1mb 70f 67f
3:36 8 10 mph 1016.1mb 70f 67f
3:30  -  mph 1016mb 70f 67f
3:24  -  mph 1016mb 70f 67f
3:18  -  mph 1015.8mb 70f 67f
3:12 6 9 mph 1015.7mb 70f 67f
3:06 6 9 mph 1015.9mb 70f 67f
3:00 8 10 mph 1015.9mb 70f 67f
2:54 7 10 mph 1015.9mb 70f 68f
2:48 5 9 mph 1016mb 70f -
2:42 8 11 mph 1015.9mb 70f -
2:36 6 9 mph 1015.9mb 70f -
2:30 6 10 mph 1015.9mb 70f 69f
2:24 5 9 mph 1015.9mb 70f 69f
2:18 7 10 mph 1015.9mb 70f 69f
2:12 9 13 mph 1015.8mb 70f 69f
2:06 8 11 mph 1015.9mb 70f 69f
2:00 7 11 mph 1015.9mb 70f 69f
1:54 7 10 mph 1015.9mb 70f 69f
1:48 7 9 mph 1015.9mb 70f 69f
1:42 7 9 mph 1015.8mb 70f 69f
1:36 3 6 mph 1015.7mb 71f 70f
1:30 5 6 mph 1015.8mb 71f 70f
1:24 5 8 mph 1015.8mb 71f 70f
1:18 5 7 mph 1015.8mb 71f 70f
1:12 6 8 mph 1015.9mb 71f 70f
1:06 6 8 mph 1016mb 72f 70f
1:00 5 5 mph 1016mb 72f 70f
12:54 5 6 mph 1015.9mb 72f 70f
12:48 5 6 mph 1015.8mb 72f 71f
12:42 3 6 mph 1015.8mb 72f 71f
12:36 3 6 mph 1015.8mb 72f 71f
12:30 5 6 mph 1015.7mb 72f 71f
12:24 5 7 mph 1015.7mb 72f 71f
12:18 5 8 mph 1015.6mb 72f 71f
12:12 7 8 mph 1015.7mb 72f 71f
12:06 6 8 mph 1015.7mb 72f 71f
12:00 8 9 mph 1015.8mb 72f 71f
mer. 08/16 11:54 7 9 mph 1015.8mb 72f 72f
11:48 7 9 mph 1015.7mb 72f 72f
11:42 7 9 mph 1015.6mb 72f 72f
11:36 6 9 mph 1015.5mb 72f 72f
11:30 6 9 mph 1015.4mb 72f 73f
11:24 6 9 mph 1015.2mb 72f 73f
11:18 8 9 mph 1015.2mb 72f 73f
11:12 7 11 mph 1015.1mb 72f 73f
11:06 8 9 mph 1015.1mb 72f 73f
11:00 8 10 mph 1015mb 72f 74f
10:54 6 8 mph 1015.1mb 72f 74f
10:48 6 9 mph 1015.1mb 72f 74f
10:42 6 10 mph 1015.1mb 72f 74f
10:36 8 11 mph 1015mb 72f 74f
10:30 3 6 mph 1015mb 72f 74f
10:24 6 7 mph 1015mb 72f 75f
10:18 5 7 mph 1014.9mb - -
10:12 5 7 mph 1014.9mb 72f 75f
10:06 7 10 mph 1014.9mb 72f 75f
10:00 6 8 mph 1014.8mb 72f 75f
9:54 6 8 mph 1014.8mb 72f 75f
9:48 8 9 mph 1014.7mb 72f 76f
9:42 6 8 mph 1014.7mb 72f 76f
9:36 5 7 mph 1014.6mb 72f 76f
9:30 7 8 mph 1014.5mb 72f 76f
9:24 7 8 mph 1014.5mb 72f 76f
9:18 6 7 mph - - -
9:12 2 5 mph 1014.2mb 72f 76f
9:06 3 7 mph 1014.1mb 72f 77f
9:00 6 7 mph 1014.1mb 72f 78f
8:54 5 6 mph 1014mb 72f 78f
8:48 5 6 mph 1014mb 72f 78f
8:42 3 7 mph 1014mb 72f 78f
8:36 5 7 mph 1014mb 72f 78f
8:30 6 8 mph 1013.9mb 72f 78f
8:24 5 7 mph 1013.8mb 72f 78f
8:18 5 7 mph - - -
8:12 6 7 mph 1013.6mb 72f 79f
8:06 5 8 mph 1013.6mb 72f 80f
8:00 6 8 mph 1013.5mb 72f 80f
7:54 5 7 mph 1013.4mb 72f 80f
7:48 5 8 mph 1013.4mb 71f 80f
7:42 6 9 mph 1013.4mb 71f 80f
7:36 7 10 mph 1013.2mb 71f 81f
7:30 7 9 mph 1013.2mb 71f 81f
7:24 6 10 mph 1013.1mb 71f 81f
7:18 8 10 mph - - -
7:12 7 9 mph 1013.1mb 71f 82f
7:06 7 11 mph 1013.1mb 71f 82f
7:00 9 11 mph 1013mb 71f 81f
6:54 7 14 mph 1013mb 71f 81f
6:48 8 10 mph 1012.8mb 71f 82f
6:42 10 14 mph 1012.6mb 70f 82f
6:36 10 14 mph 1012.6mb 70f 82f
6:30 11 14 mph 1012.6mb 70f 82f
6:24 11 16 mph 1012.5mb 70f 82f
6:18 6 9 mph 1012.5mb 70f 83f
6:12 10 14 mph 1012.4mb 70f 83f
6:06 10 15 mph 1012.4mb 70f 83f
6:00 8 14 mph 1012.3mb 70f 83f
5:54 13 16 mph 1012.3mb 70f 83f
5:48 11 16 mph 1012.2mb 70f 83f
5:42 13 17 mph 1012.2mb 70f 82f
5:36 13 16 mph 1012.1mb 70f 83f
5:30 9 15 mph 1012.2mb 70f 83f
5:24 10 15 mph 1012.1mb 70f 83f
5:18 10 15 mph 1012.1mb 70f 83f
5:12 11 15 mph 1012mb 70f 83f
5:06 9 16 mph 1012mb 70f 82f
5:00 9 15 mph 1012mb 70f 83f
4:54 6 9 mph 1012mb 70f 85f
4:48 9 16 mph 1012mb 70f 84f
4:42 7 14 mph 1012mb 70f 85f
4:36 11 16 mph 1011.9mb 70f 84f
4:30 9 15 mph 1011.9mb 70f 84f
4:24 11 17 mph 1011.8mb 70f 84f
4:18 7 15 mph 1011.8mb 70f 84f
4:12 8 15 mph 1011.9mb 70f 83f
4:06 11 16 mph 1011.9mb 70f 84f
4:00 11 14 mph 1011.9mb 70f 85f
3:54 8 11 mph 1011.9mb 70f 84f
3:48 11 18 mph 1012mb 70f 84f
3:42 10 16 mph 1012mb 70f 84f
3:36 11 21 mph 1012mb 70f 84f
3:30 9 17 mph 1012.1mb 70f 83f
3:24 13 18 mph 1012.1mb 70f 84f
3:18 11 18 mph 1012.1mb 70f 83f
3:12 11 17 mph 1012.1mb 70f 83f
3:06 16 20 mph 1012.1mb 70f 84f
3:00 9 14 mph 1012.1mb 70f 84f
2:54 7 16 mph 1012.2mb 70f 84f
2:48 13 18 mph 1012.3mb 71f 82f
2:42 9 16 mph 1012.2mb 71f 83f
2:36 7 16 mph 1012.2mb 71f 84f
2:30 10 16 mph 1012.3mb 71f 85f
2:24 13 20 mph 1012.3mb 71f 83f
2:18 7 20 mph 1012.2mb 71f 84f
2:12 13 21 mph 1012.2mb 71f 84f
2:06 8 11 mph 1012.4mb 71f 83f
2:00 11 16 mph 1012.4mb 71f 83f
1:54 11 15 mph 1012.4mb 71f 82f
1:48 9 16 mph 1012.3mb 71f 82f
1:42 9 16 mph 1012.4mb 71f 82f
1:36 7 13 mph 1012.4mb 71f 81f
1:30 10 15 mph 1012.4mb 71f 81f
1:24 8 14 mph 1012.5mb 71f 81f
1:18 11 15 mph 1012.5mb 71f 81f
1:12 10 17 mph 1012.4mb 71f 82f
1:06 15 20 mph 1012.4mb 71f 82f
1:00 11 17 mph 1012.4mb 71f 81f
12:54 11 14 mph 1012.4mb 71f 82f
12:48 7 15 mph 1012.5mb 71f 81f
12:42 6 13 mph 1012.4mb 71f 82f
12:36 7 10 mph 1012.5mb 71f 82f
12:30 9 16 mph 1012.5mb 71f 81f
12:24 10 14 mph 1012.4mb 71f 81f
12:18 11 14 mph 1012.4mb 71f 80f
12:12 7 15 mph 1012.4mb 71f 80f
12:06 10 17 mph 1012.4mb 71f 80f
12:00 6 11 mph 1012.3mb 71f 80f
11:54 8 17 mph 1012.3mb 71f 79f
11:48 9 13 mph 1012.2mb 71f 79f
11:42 8 16 mph 1012.2mb 71f 80f
11:36 11 15 mph 1012.2mb 71f 80f
11:30 11 16 mph 1012.3mb 71f 80f
11:24 11 16 mph 1012.2mb 71f 80f
11:18 10 15 mph 1012.3mb 71f 78f
11:12 11 16 mph 1012.3mb 71f 78f
11:06 10 15 mph 1012.3mb 71f 79f
11:00 11 16 mph 1012.3mb 71f 78f
10:54 11 17 mph 1012.2mb 71f 79f
10:48 10 16 mph 1012.2mb 72f 79f
10:42 11 17 mph 1012.3mb 72f 79f
10:36 7 14 mph 1012.3mb 72f 78f
10:30 8 14 mph 1012.3mb 72f 78f
10:24 11 15 mph 1012.3mb 72f 78f
10:18 9 16 mph 1012.3mb 72f 78f
10:12 13 16 mph 1012.3mb 72f 78f
10:06 16 20 mph 1012.2mb 72f 77f
10:00 13 16 mph 1012.3mb 72f 77f
9:54 8 16 mph 1012.4mb 72f 77f
9:48 10 17 mph 1012.4mb 72f 77f
9:42 14 20 mph 1012.3mb 72f 76f
9:36 11 17 mph 1012.2mb 72f 77f
9:30 13 15 mph 1012.3mb 72f 76f
9:24 9 15 mph 1012.2mb 72f 76f
9:18 8 14 mph 1012.3mb 72f 76f
9:12 10 14 mph 1012.2mb 72f 76f
9:06 6 10 mph 1012.2mb 72f 76f
9:00 8 14 mph 1012.2mb 72f 75f
8:54 10 16 mph 1012.2mb 72f 74f
8:48 10 16 mph 1012.2mb 72f 74f
8:42 11 16 mph 1012.3mb 72f 74f
8:36 7 14 mph 1012.3mb 72f 74f
8:30 11 16 mph 1012.2mb 72f 73f
8:24 10 14 mph 1012.2mb 72f 73f
8:18 11 15 mph 1012.2mb 72f 73f
8:12 11 16 mph 1012.2mb 72f 73f
8:06 11 14 mph 1012.2mb 72f 73f
8:00 9 15 mph 1012.3mb 72f 72f
7:54 9 15 mph 1012.3mb 72f 72f
7:48 8 11 mph 1012.4mb 72f 72f
7:42 9 13 mph 1012.3mb 72f 71f
7:36 7 11 mph 1012.3mb 72f 71f
7:30 7 13 mph 1012.4mb 72f 71f
7:24 7 13 mph 1012.4mb 72f 71f
7:18 10 14 mph 1012.2mb 72f 71f
7:12 6 9 mph 1012.2mb 72f 70f
7:06 6 9 mph 1012.1mb 72f 70f
7:00 7 11 mph 1012.1mb 72f 70f
6:54 9 14 mph 1012.1mb 72f 69f
6:48 8 11 mph 1012.1mb 72f 70f
6:42 6 8 mph 1012.1mb 72f 69f
6:36 2 5 mph 1012mb 72f 69f
6:30 3 6 mph 1012mb 72f 69f
6:24 1 5 mph 1011.9mb 72f 68f
6:18 2 3 mph 1012mb 72f 68f
6:12 2 3 mph 1012mb 72f 68f
6:06 2 3 mph 1012mb 72f 68f
6:00 1 3 mph 1011.8mb 72f 68f
5:54  -  2 mph 1011.8mb 72f 68f
5:48 1 3 mph 1011.7mb 72f 68f
5:42 1 2 mph 1011.7mb 72f 68f
5:36  -  2 mph 1011.7mb 72f 68f
5:30 2 5 mph 1011.7mb 72f 68f
5:24 3 5 mph 1011.6mb 72f 68f
5:18 2 3 mph 1011.4mb 72f 68f
5:12 3 3 mph 1011.4mb 71f 68f
5:06 2 3 mph 1011.5mb 71f 68f
5:00 2 5 mph 1011.5mb 71f 68f
4:54 1 3 mph 1011.5mb 71f 68f
4:48 3 5 mph 1011.4mb 71f 68f
4:42 5 6 mph 1011.4mb 71f 68f
4:36 3 5 mph 1011.3mb 71f 68f
4:30 2 3 mph 1011.3mb 71f 68f
4:24 2 3 mph 1011.4mb 71f 68f
4:18 2 5 mph 1011.5mb 71f 68f
4:12 3 6 mph 1011.5mb 71f 68f
4:06 3 6 mph 1011.5mb 71f 68f
4:00 5 6 mph 1011.5mb 71f 68f
3:54 5 6 mph 1011.4mb 71f 68f
3:48 5 7 mph 1011.4mb 71f 68f
3:42 6 7 mph 1011.4mb 71f 68f
3:36 5 6 mph 1011.4mb 71f 68f
3:30 3 6 mph 1011.4mb 71f 69f
3:24 6 7 mph 1011.5mb 71f 69f
3:18 3 6 mph 1011.5mb 71f 69f
3:12 5 6 mph 1011.4mb 71f 69f
3:06 3 7 mph 1011.5mb 71f 69f
3:00 6 6 mph 1011.5mb 71f 69f
2:54 3 5 mph 1011.6mb 71f 69f
2:48 5 7 mph - - -
2:42 5 6 mph 1011.7mb 71f 69f
2:36 2 3 mph 1011.7mb 71f 69f
2:30 2 3 mph 1011.5mb 71f 69f
2:24 2 3 mph 1011.5mb 71f 68f
2:18 2 5 mph 1011.5mb 71f 68f
2:12 1 3 mph 1011.4mb 71f 68f
2:06 2 3 mph 1011.3mb 71f 68f
2:00 1 2 mph 1011.2mb 71f 68f
1:54 1 3 mph 1011.2mb 71f 68f
1:48 2 3 mph 1011.2mb 71f 68f
1:42  -  2 mph 1011.3mb 71f 67f
1:36 1 2 mph 1011.3mb 71f 67f
1:30 2 3 mph 1011.2mb 71f 68f
1:24 3 5 mph 1011.2mb 71f 68f
1:18 2 5 mph 1011.1mb 71f 68f
1:12 2 5 mph 1011.1mb 71f 68f
1:06 3 5 mph 1011.1mb 71f 68f
1:00 3 5 mph 1011.2mb 71f 68f
12:54 2 5 mph 1011.2mb 71f 68f
12:48 5 5 mph 1011.1mb 71f 68f
12:42 3 5 mph 1011.1mb 71f 68f
12:36 2 5 mph 1011.1mb 71f 68f
12:30 5 6 mph 1011.1mb 71f 68f
12:24 3 5 mph 1011.2mb 71f 68f
12:18 3 5 mph 1011.1mb 71f 68f
12:12 5 5 mph 1011.1mb 72f 68f
12:06 3 5 mph 1011mb 72f 68f
12:00 3 5 mph 1011mb 72f 68f
mar. 08/15 11:54 5 6 mph 1011mb 72f 68f
11:48 6 7 mph - - -
11:42 3 6 mph 1011.1mb 72f 69f
11:36 6 7 mph 1011.1mb 72f 69f
11:30  -  mph 1011.1mb 72f 69f
11:24  -  mph 1011.2mb 72f 69f
11:18 6 7 mph 1011.2mb 72f 69f
11:12 6 7 mph 1011.2mb 72f 69f
11:06 5 6 mph 1011.4mb 72f 69f
11:00 3 7 mph 1011.4mb 72f 69f
10:54 6 7 mph 1011.4mb 72f 69f
10:48 5 7 mph - - -
10:42 5 7 mph 1011.6mb 72f 69f
10:36 5 6 mph 1011.7mb 72f 69f
10:30 5 6 mph 1011.7mb 72f 69f
10:24 3 7 mph 1011.7mb 72f 70f
10:18 5 7 mph 1011.7mb 72f 70f
10:12 5 6 mph 1011.7mb 72f 70f
10:06 6 6 mph 1011.8mb 72f 70f
10:00 3 7 mph 1011.7mb 72f 70f
9:54 5 7 mph 1011.7mb 72f 70f
9:48 3 9 mph - - -
9:42 7 9 mph 1011.8mb 72f 70f
9:36 7 10 mph 1011.9mb 72f 70f
9:30 7 9 mph 1011.9mb 72f 70f
9:24 5 8 mph 1011.9mb 72f 71f
9:18 6 9 mph 1011.9mb 72f 71f
9:12 6 11 mph 1011.9mb 72f 70f
9:06 7 10 mph 1011.8mb 72f 70f
9:00 8 10 mph 1011.9mb 72f 70f
8:54 7 10 mph 1012mb 72f 70f
8:48 2 6 mph 1012mb 72f 70f
8:42 1 7 mph 1012mb 72f 70f
8:36 6 9 mph 1011.9mb 72f 70f
8:30 8 11 mph 1011.9mb 72f 70f
8:24 6 9 mph 1011.9mb 72f 71f
8:18 6 10 mph 1012mb 72f 71f
8:12 7 10 mph 1011.8mb 72f 71f
8:06 8 11 mph 1011.8mb 72f 71f
8:00 9 13 mph 1012mb 72f 71f
7:54 6 9 mph 1012.1mb 72f 71f
7:48 7 9 mph 1012.2mb 72f 71f
7:42 5 11 mph 1012.3mb 72f 71f
7:36 7 8 mph 1012.1mb 72f 71f
7:30 7 9 mph 1012.1mb 72f 71f
7:24 9 11 mph 1012.2mb 72f 71f
7:18 7 9 mph 1012.2mb - -
7:12 6 13 mph 1012.1mb 72f 71f
7:06 9 13 mph 1012mb 72f 71f
7:00 9 13 mph 1012mb 72f 71f
6:54 8 11 mph 1012.2mb 72f 72f
6:48 9 14 mph 1012.3mb 72f 72f
6:42 9 13 mph 1012.2mb 72f 72f
6:36 8 14 mph 1012.2mb 72f 72f
6:30 10 14 mph 1012.2mb 72f 72f
6:24 6 11 mph 1012.1mb 72f 72f
6:18 8 11 mph - - -
6:12 7 10 mph 1012mb 72f 72f
6:06 8 14 mph 1012mb 72f 72f
6:00 9 14 mph 1012.1mb 72f 72f
5:54 10 11 mph 1012.3mb 72f 72f
5:48 7 14 mph 1012.1mb 72f 73f
5:42 10 15 mph 1012mb 72f 72f
5:36 8 16 mph 1011.8mb 72f 73f
5:30 10 15 mph 1011.8mb 72f 73f
5:24 10 14 mph 1011.8mb 72f 73f
5:18 8 16 mph 1011.8mb 72f 73f
5:12 11 16 mph 1011.9mb 72f 73f
5:06 9 14 mph 1011.9mb 72f 73f
5:00 8 11 mph 1011.9mb 72f 73f
4:54 8 11 mph 1011.8mb 72f 73f
4:48 7 13 mph 1011.8mb 72f 73f
4:42 8 10 mph 1011.7mb 72f 74f
4:36 6 11 mph 1011.6mb 72f 74f
4:30 7 11 mph 1011.8mb 72f 74f
4:24 9 14 mph 1011.9mb 71f 74f
4:18 9 14 mph 1011.9mb 71f 74f
4:12 9 16 mph 1011.9mb 71f 75f
4:06 9 14 mph 1012mb 71f 75f
4:00 9 15 mph 1012mb 71f 75f
3:54 10 15 mph 1012.1mb 71f 75f
3:48 7 14 mph 1012mb 71f 76f
3:42 8 14 mph 1011.9mb 71f 76f
3:36 9 16 mph 1012mb 71f 76f
3:30 11 18 mph 1012mb 71f 76f
3:24 11 17 mph 1012.1mb 71f 76f
3:18 10 16 mph 1012.1mb 71f 76f
3:12 10 14 mph 1012.2mb 71f 77f
3:06 13 20 mph 1012.1mb 71f 77f
3:00 14 18 mph 1012.1mb 71f 77f
2:54 11 15 mph 1011.9mb 70f 78f
2:48 7 16 mph 1011.9mb 70f 78f
2:42 11 17 mph 1011.9mb 70f 78f
2:36 10 17 mph 1011.8mb 70f 78f
2:30 11 16 mph 1011.8mb 70f 78f
2:24 11 15 mph 1011.7mb 70f 77f
2:18 13 16 mph 1011.9mb 70f 77f
2:12 14 17 mph 1012mb 70f 76f
2:06 14 17 mph 1012mb 70f 76f
2:00 14 16 mph 1012.1mb 70f 76f
1:54 13 15 mph 1012.1mb 70f 76f
1:48 14 17 mph 1012.1mb 70f 76f
1:42 15 16 mph 1012mb 70f 76f
1:36 8 13 mph 1012.1mb 70f 78f
1:30 8 13 mph 1012.1mb 70f 78f
1:24 7 9 mph 1012.1mb 70f 77f
1:18 9 11 mph 1012.2mb 71f 76f
1:12 8 9 mph 1012.2mb 71f 76f
1:06 7 9 mph 1012.2mb 71f 76f
1:00 7 9 mph 1012.1mb 71f 76f
12:54 8 10 mph 1012.2mb 71f 76f
12:48 9 11 mph 1012.3mb 71f 76f
12:42 10 11 mph 1012.3mb 71f 75f
12:36 8 10 mph 1012.2mb 71f 75f
12:30 8 11 mph 1012.3mb 71f 75f
12:24 10 11 mph 1012.4mb 71f 75f
12:18 9 11 mph 1012.5mb - 75f
12:12 9 11 mph 1012.6mb - 75f
12:06 10 13 mph 1012.5mb - 75f
12:00 8 9 mph 1012.5mb 71f 75f
11:54 7 11 mph 1012.5mb 71f 74f
11:48 9 14 mph 1012.5mb 71f 74f
11:42 13 15 mph 1012.6mb 71f 74f
11:36 11 13 mph 1012.7mb 71f 74f
11:30 9 13 mph 1012.7mb 71f 74f
11:24 10 13 mph 1012.6mb 71f 74f
11:18 11 14 mph 1012.7mb 71f 74f
11:12 13 14 mph 1012.8mb 71f 74f
11:06 7 9 mph 1012.9mb 71f 76f
11:00 6 8 mph 1012.9mb 71f 74f
10:54 8 9 mph 1013mb 71f 74f
10:48 9 10 mph 1012.9mb 71f 74f
10:42 7 8 mph 1013mb 71f 74f
10:36 6 9 mph 1013mb 71f 74f
10:30 8 10 mph 1013mb 71f 75f
10:24 9 13 mph 1013.2mb 71f 75f
10:18 8 14 mph 1013.3mb 71f 75f
10:12 10 13 mph 1013.4mb 71f 75f
10:06 8 14 mph 1013.3mb 71f 74f
10:00 7 10 mph 1013.4mb 71f 75f
9:54 8 11 mph 1013.5mb 71f 75f
9:48 8 11 mph 1013.5mb 71f 74f
9:42 9 11 mph 1013.4mb 71f 74f
9:36 7 10 mph 1013.4mb 71f 74f
9:30 8 10 mph 1013.4mb 71f 74f
9:24 9 11 mph 1013.4mb 71f 74f
9:18 7 10 mph 1013.4mb 71f 74f
9:12 8 11 mph 1013.4mb 71f 75f
9:06 5 9 mph 1013.3mb 71f 75f
9:00 6 8 mph 1013.3mb 71f 74f
8:54 5 9 mph 1013.2mb 72f 73f
8:48 5 9 mph 1013.3mb 72f 73f
8:42 6 9 mph 1013.2mb 72f 72f
8:36 6 9 mph 1013.4mb 72f 72f
8:30 6 8 mph 1013.4mb 72f 71f
8:24 6 8 mph 1013.4mb 72f 71f
8:18 6 7 mph 1013.3mb 72f 71f
8:12 3 6 mph 1013.4mb 72f 71f
8:06 3 5 mph 1013.4mb 72f 71f
8:00 5 6 mph 1013.5mb 72f 70f
7:54 5 7 mph 1013.5mb 72f 70f
7:48 6 7 mph 1013.4mb 72f 70f
7:42 5 6 mph 1013.5mb 72f 70f
7:36 3 6 mph 1013.5mb 72f 70f
7:30 6 8 mph 1013.5mb 72f 70f
7:24 7 9 mph 1013.4mb 72f 70f
7:18 7 8 mph 1013.3mb 72f 70f
7:12 5 7 mph 1013.3mb 72f 70f
7:06 6 7 mph 1013.2mb 72f 70f
7:00 5 7 mph 1013.3mb 72f 70f
6:54 6 7 mph 1013.4mb 72f 70f
6:48 6 7 mph 1013.4mb 72f 70f
6:42 6 6 mph 1013.4mb 72f 69f
6:36 5 7 mph 1013.5mb 72f 69f
6:30 5 7 mph 1013.5mb 72f 69f
6:24 3 5 mph 1013.5mb 72f 69f
6:18 3 6 mph 1013.4mb 72f 69f
6:12 5 5 mph 1013.4mb 72f 69f
6:06 2 3 mph 1013.3mb 72f 69f
6:00 2 2 mph 1013.3mb 72f 69f
5:54 2 3 mph 1013.3mb 72f 69f
5:48 2 3 mph 1013.3mb 72f 69f
5:42 2 3 mph 1013.4mb 72f 69f
5:36 1 5 mph 1013.6mb 72f 69f
5:30 5 6 mph 1013.5mb 72f 69f
5:24 3 6 mph 1013.5mb 72f 69f
5:18 2 3 mph 1013.6mb 72f 69f
5:12 2 5 mph 1013.5mb 72f 69f
5:06 2 6 mph 1013.5mb 72f 69f
5:00 5 7 mph 1013.5mb 72f 69f
4:54 3 7 mph 1013.4mb 72f 69f
4:48 5 6 mph 1013.5mb 72f 69f
4:42 3 6 mph 1013.2mb 72f 69f
4:36 5 6 mph 1013.5mb 72f 69f
4:30 3 6 mph 1013.6mb 72f 69f
4:24 3 3 mph 1013.6mb 72f 69f
4:18 2 3 mph 1013.6mb 72f 69f
4:12 3 6 mph 1013.4mb 72f 69f
4:06 5 6 mph 1013.5mb 71f 69f
4:00 2 3 mph 1013.5mb 71f 69f
3:54 2 2 mph 1013.3mb 71f 69f
3:48 2 2 mph 1013.3mb 71f 69f
3:42 2 3 mph 1013.5mb 71f 69f
3:36 2 3 mph 1013.6mb 71f 69f
3:30 2 3 mph 1013.5mb 71f 69f
3:24 3 3 mph 1013.4mb 71f 69f
3:18 3 5 mph 1013.3mb 71f 69f
3:12 3 6 mph 1013.4mb 71f 69f
3:06 5 6 mph 1013.4mb 71f 69f
3:00 3 5 mph 1013.4mb 71f 69f
2:54 3 5 mph 1013.4mb 71f 69f
2:48 3 5 mph 1013.4mb 71f -
2:42 2 3 mph 1013.2mb 71f -
2:36 3 5 mph 1013.3mb 71f -
2:30 3 5 mph 1013.3mb 71f 70f
2:24 3 6 mph 1013.4mb 71f 70f
2:18 5 5 mph 1013.4mb 71f 70f
2:12 2 3 mph 1013.3mb 70f 69f
2:06 2 2 mph 1013.3mb 70f 69f
2:00 1 3 mph 1013.3mb 70f 69f
1:54 2 5 mph 1013.5mb 70f 69f
1:48 3 5 mph 1013.5mb 70f 70f
1:42 5 7 mph 1013.6mb 70f 70f